Time;durP1;ratioP1;P1;durP2;ratioP2;P2;SDS_P1;SDS_P2;PMS_P1;PMS_P2;Temp;Humidity;BMP_temperature;BMP_pressure;BME280_temperature;BME280_humidity;BME280_pressure;Samples;Min_cycle;Max_cycle;Signal;HPM_P1;HPM_P2
2023/07/24 00:00:00;;;;;;;16.60;11.05;;;28.60;99.90;;;;;;5033633;28;20093;-66
2023/07/24 00:02:25;;;;;;;16.17;12.18;;;28.50;99.90;;;;;;5029414;28;20463;-66
2023/07/24 00:04:51;;;;;;;16.10;12.32;;;28.60;99.90;;;;;;5035099;28;20034;-66
2023/07/24 00:07:17;;;;;;;15.45;12.10;;;28.50;99.90;;;;;;5035342;28;20035;-66
2023/07/24 00:09:42;;;;;;;16.77;11.82;;;28.60;99.90;;;;;;5031171;28;20022;-66
2023/07/24 00:12:08;;;;;;;17.02;12.25;;;28.60;99.90;;;;;;5029938;28;20040;-66
2023/07/24 00:14:34;;;;;;;15.73;12.55;;;28.40;99.90;;;;;;5035186;28;20041;-66
2023/07/24 00:17:00;;;;;;;14.35;12.30;;;28.40;99.90;;;;;;5035280;28;20079;-66
2023/07/24 00:19:25;;;;;;;16.05;10.98;;;28.40;99.90;;;;;;5034829;28;20092;-66
2023/07/24 00:21:51;;;;;;;16.55;12.07;;;28.40;99.90;;;;;;5035176;28;20139;-66
2023/07/24 00:24:16;;;;;;;16.48;11.65;;;28.20;99.90;;;;;;5035997;28;20033;-66
2023/07/24 00:26:42;;;;;;;18.52;11.90;;;28.30;99.90;;;;;;5034724;28;20025;-66
2023/07/24 00:29:08;;;;;;;16.77;12.20;;;28.30;99.90;;;;;;5034697;28;20033;-66
2023/07/24 00:31:33;;;;;;;16.00;11.07;;;28.20;99.90;;;;;;5034692;28;20029;-66
2023/07/24 00:34:00;;;;;;;20.17;12.80;;;28.20;99.90;;;;;;5033711;28;20064;-66
2023/07/24 00:36:26;;;;;;;17.63;12.68;;;28.20;99.90;;;;;;5034703;28;20021;-66
2023/07/24 00:38:52;;;;;;;17.00;11.52;;;28.20;99.90;;;;;;5034575;28;20021;-66
2023/07/24 00:41:18;;;;;;;15.80;11.25;;;28.30;99.90;;;;;;5034712;28;20489;-66
2023/07/24 00:43:43;;;;;;;15.65;11.40;;;28.30;99.90;;;;;;5034449;28;20025;-66
2023/07/24 00:46:10;;;;;;;16.13;11.15;;;28.30;99.90;;;;;;5034319;28;20028;-66
2023/07/24 00:48:37;;;;;;;13.98;11.32;;;28.20;99.90;;;;;;5034516;28;20026;-66
2023/07/24 00:51:03;;;;;;;13.00;10.68;;;28.20;99.90;;;;;;5034355;28;20379;-66
2023/07/24 00:53:29;;;;;;;15.55;10.70;;;28.30;99.90;;;;;;5034638;28;20029;-66
2023/07/24 00:55:54;;;;;;;16.73;11.38;;;28.20;99.90;;;;;;5034093;28;20034;-66
2023/07/24 00:58:22;;;;;;;12.50;11.18;;;28.20;99.90;;;;;;5034269;28;20589;-66
2023/07/24 01:00:47;;;;;;;13.98;11.55;;;28.10;99.90;;;;;;5034259;28;20386;-66
2023/07/24 01:03:13;;;;;;;15.68;11.48;;;28.20;99.90;;;;;;5031536;28;20109;-66
2023/07/24 01:05:41;;;;;;;16.52;11.27;;;28.10;99.90;;;;;;5019035;28;20487;-66
2023/07/24 01:08:07;;;;;;;13.25;10.10;;;28.10;99.90;;;;;;5031504;28;20021;-66
2023/07/24 01:10:33;;;;;;;14.05;11.27;;;28.10;99.90;;;;;;5032765;28;20112;-66
2023/07/24 01:13:17;;;;;;;17.02;12.07;;;28.00;99.90;;;;;;5033429;28;20125;-66
2023/07/24 01:15:48;;;;;;;12.88;11.13;;;28.00;99.90;;;;;;5033358;28;20088;-66
2023/07/24 01:18:16;;;;;;;15.57;11.30;;;28.10;99.90;;;;;;5033309;28;20029;-66
2023/07/24 01:20:51;;;;;;;15.25;11.77;;;28.10;99.90;;;;;;5033337;28;20041;-66
2023/07/24 01:23:20;;;;;;;13.70;10.63;;;28.10;99.90;;;;;;5032844;28;20029;-66
2023/07/24 01:25:56;;;;;;;16.63;11.40;;;28.10;99.90;;;;;;5032984;28;20391;-66
2023/07/24 01:28:22;;;;;;;14.35;10.80;;;28.20;99.90;;;;;;5033102;28;20061;-66
2023/07/24 01:30:47;;;;;;;16.27;11.02;;;28.10;99.90;;;;;;5033107;28;20526;-66
2023/07/24 01:33:14;;;;;;;15.32;11.50;;;28.10;99.90;;;;;;5033127;28;20171;-66
2023/07/24 01:35:43;;;;;;;13.48;10.55;;;28.10;99.90;;;;;;5032722;28;20033;-66
2023/07/24 01:38:13;;;;;;;15.02;11.65;;;27.90;99.90;;;;;;5032855;28;20041;-66
2023/07/24 01:40:42;;;;;;;14.10;10.73;;;27.90;99.90;;;;;;5032470;28;20141;-66
2023/07/24 01:43:09;;;;;;;14.95;11.60;;;27.90;99.90;;;;;;5032669;28;20042;-66
2023/07/24 01:45:35;;;;;;;14.65;11.95;;;27.90;99.90;;;;;;5033090;28;20030;-66
2023/07/24 01:48:03;;;;;;;15.55;11.68;;;27.80;99.90;;;;;;5032436;28;20387;-66
2023/07/24 01:50:28;;;;;;;13.82;11.55;;;27.80;99.90;;;;;;5032673;28;20116;-66
2023/07/24 01:52:54;;;;;;;15.13;11.25;;;27.80;99.90;;;;;;5032593;28;20132;-66
2023/07/24 01:55:20;;;;;;;13.32;11.25;;;27.70;99.90;;;;;;5032758;28;20083;-66
2023/07/24 01:57:46;;;;;;;16.80;12.50;;;27.80;99.90;;;;;;5019424;28;20391;-66
2023/07/24 02:00:12;;;;;;;15.13;12.25;;;27.70;99.90;;;;;;5032767;28;20045;-66
2023/07/24 02:02:38;;;;;;;14.35;12.82;;;27.70;99.90;;;;;;5033198;28;20115;-66
2023/07/24 02:05:13;;;;;;;15.00;12.55;;;27.80;99.90;;;;;;5032996;28;20060;-66
2023/07/24 02:07:38;;;;;;;17.67;13.00;;;27.70;99.90;;;;;;5033235;28;20032;-66
2023/07/24 02:10:04;;;;;;;16.02;12.35;;;27.70;99.90;;;;;;5031566;28;20026;-66
2023/07/24 02:12:30;;;;;;;14.93;11.85;;;27.70;99.90;;;;;;5031023;28;20036;-66
2023/07/24 02:15:02;;;;;;;16.73;12.30;;;27.60;99.90;;;;;;5024771;28;20038;-66
2023/07/24 02:17:27;;;;;;;14.75;12.48;;;27.80;99.90;;;;;;5031746;28;20035;-66
2023/07/24 02:19:53;;;;;;;16.88;13.05;;;27.60;99.90;;;;;;5025443;28;20029;-66
2023/07/24 02:22:56;;;;;;;19.23;12.60;;;27.70;99.90;;;;;;5035389;28;20112;-67
2023/07/24 02:25:22;;;;;;;16.33;12.30;;;27.70;99.90;;;;;;5038668;28;20029;-66
2023/07/24 02:27:48;;;;;;;14.52;11.77;;;27.70;99.90;;;;;;5037768;28;20081;-66
2023/07/24 02:30:13;;;;;;;14.57;11.75;;;27.70;99.90;;;;;;5038836;28;20018;-66
2023/07/24 02:32:39;;;;;;;13.52;11.90;;;27.80;99.90;;;;;;5035115;28;20497;-66
2023/07/24 02:35:05;;;;;;;17.10;13.02;;;27.70;99.90;;;;;;5032016;28;20040;-65
2023/07/24 02:37:31;;;;;;;16.02;12.63;;;27.70;99.90;;;;;;5039103;28;20356;-66
2023/07/24 02:39:57;;;;;;;15.85;12.15;;;27.60;99.90;;;;;;5031381;28;20075;-66
2023/07/24 02:42:22;;;;;;;14.40;12.43;;;27.70;99.90;;;;;;5031259;28;20025;-66
2023/07/24 02:44:48;;;;;;;17.45;13.32;;;27.60;99.90;;;;;;5029823;28;20083;-66
2023/07/24 02:47:14;;;;;;;15.95;12.60;;;27.60;99.90;;;;;;5038841;28;20021;-66
2023/07/24 02:49:39;;;;;;;16.15;13.27;;;27.60;99.90;;;;;;5039311;28;20029;-66
2023/07/24 02:52:05;;;;;;;18.80;12.30;;;27.70;99.90;;;;;;5024384;28;20018;-66
2023/07/24 02:54:31;;;;;;;14.15;11.77;;;27.70;99.90;;;;;;5037014;28;20428;-66
2023/07/24 02:56:57;;;;;;;17.33;12.32;;;27.70;99.90;;;;;;5030351;28;20096;-66
2023/07/24 02:59:23;;;;;;;14.63;12.70;;;27.60;99.90;;;;;;5034289;28;20052;-66
2023/07/24 03:01:49;;;;;;;17.67;12.75;;;27.60;99.90;;;;;;5029940;28;20386;-66
2023/07/24 03:04:14;;;;;;;17.05;11.73;;;27.60;99.90;;;;;;5039052;28;20037;-66
2023/07/24 03:06:40;;;;;;;15.95;12.73;;;27.50;99.90;;;;;;5037309;28;20040;-66
2023/07/24 03:09:06;;;;;;;15.55;12.57;;;27.70;99.90;;;;;;5029905;28;20025;-66
2023/07/24 03:11:33;;;;;;;16.10;12.35;;;27.60;99.90;;;;;;5033701;28;20045;-66
2023/07/24 03:13:59;;;;;;;14.95;12.68;;;27.50;99.90;;;;;;5037101;28;20441;-66
2023/07/24 03:16:24;;;;;;;18.58;14.05;;;27.50;99.90;;;;;;5034550;28;20453;-66
2023/07/24 03:18:51;;;;;;;14.95;12.48;;;27.50;99.90;;;;;;5034142;28;20056;-66
2023/07/24 03:21:17;;;;;;;14.93;12.00;;;27.40;99.90;;;;;;5038699;28;20068;-66
2023/07/24 03:23:42;;;;;;;15.40;12.15;;;27.40;99.90;;;;;;5024236;28;20491;-66
2023/07/24 03:26:08;;;;;;;15.10;13.00;;;27.40;99.90;;;;;;5031135;28;20049;-66
2023/07/24 03:28:34;;;;;;;14.63;12.25;;;27.50;99.90;;;;;;5038182;28;20483;-66
2023/07/24 03:30:59;;;;;;;16.70;12.52;;;27.50;99.90;;;;;;5038376;28;20056;-66
2023/07/24 03:33:25;;;;;;;13.27;11.65;;;27.50;99.90;;;;;;5034134;28;20018;-66
2023/07/24 03:35:51;;;;;;;16.33;12.65;;;27.50;99.90;;;;;;5035969;28;20045;-66
2023/07/24 03:38:16;;;;;;;14.93;12.50;;;27.50;99.90;;;;;;5034335;28;20044;-66
2023/07/24 03:40:42;;;;;;;14.07;11.90;;;27.50;99.90;;;;;;5035422;28;20399;-66
2023/07/24 03:43:08;;;;;;;16.30;12.02;;;27.50;99.90;;;;;;5031613;28;20040;-66
2023/07/24 03:45:33;;;;;;;16.55;12.60;;;27.50;99.90;;;;;;5035604;28;20467;-66
2023/07/24 03:47:59;;;;;;;16.30;12.95;;;27.50;99.90;;;;;;5028987;28;20510;-66
2023/07/24 03:50:25;;;;;;;15.60;12.75;;;27.50;99.90;;;;;;5028452;28;20487;-66
2023/07/24 03:52:50;;;;;;;15.98;11.95;;;27.40;99.90;;;;;;5035522;28;20022;-66
2023/07/24 03:55:16;;;;;;;15.48;12.50;;;27.40;99.90;;;;;;5035342;28;20088;-66
2023/07/24 03:57:42;;;;;;;14.18;11.57;;;27.30;99.90;;;;;;5035209;28;20037;-66
2023/07/24 04:00:08;;;;;;;15.38;12.15;;;27.30;99.90;;;;;;5035087;28;20064;-66
2023/07/24 04:02:33;;;;;;;17.58;12.93;;;27.30;99.90;;;;;;5035595;28;20109;-66
2023/07/24 04:04:59;;;;;;;17.20;13.60;;;27.30;99.90;;;;;;5035600;28;20057;-66
2023/07/24 04:07:25;;;;;;;14.93;13.05;;;27.50;99.90;;;;;;5035278;28;20025;-66
2023/07/24 04:09:50;;;;;;;18.50;12.32;;;27.60;99.90;;;;;;5035430;28;20494;-66
2023/07/24 04:12:16;;;;;;;14.25;11.77;;;27.50;99.90;;;;;;5035023;28;20033;-66
2023/07/24 04:14:42;;;;;;;15.05;11.88;;;27.50;99.90;;;;;;5021440;28;20033;-66
2023/07/24 04:17:07;;;;;;;15.98;12.85;;;27.50;99.90;;;;;;5027567;28;20034;-66
2023/07/24 04:19:33;;;;;;;16.38;12.98;;;27.50;99.90;;;;;;5017025;28;20104;-66
2023/07/24 04:21:59;;;;;;;17.17;13.27;;;27.50;99.90;;;;;;5035008;28;20061;-66
2023/07/24 04:24:24;;;;;;;15.82;12.90;;;27.50;99.90;;;;;;5033974;28;20135;-66
2023/07/24 04:26:50;;;;;;;17.05;13.30;;;27.40;99.90;;;;;;5030580;28;20068;-66
2023/07/24 04:29:15;;;;;;;17.25;13.02;;;27.40;99.90;;;;;;5035136;28;20036;-66
2023/07/24 04:31:41;;;;;;;15.80;12.38;;;27.40;99.90;;;;;;5034739;28;20038;-66
2023/07/24 04:34:07;;;;;;;18.45;13.32;;;27.40;99.90;;;;;;5035122;28;20030;-66
2023/07/24 04:36:32;;;;;;;16.83;12.20;;;27.30;99.90;;;;;;5021201;28;20046;-66
2023/07/24 04:38:58;;;;;;;18.17;12.75;;;27.40;99.90;;;;;;5027536;28;20072;-66
2023/07/24 04:41:23;;;;;;;17.02;13.50;;;27.40;99.90;;;;;;5025237;28;20156;-66
2023/07/24 04:43:49;;;;;;;17.08;12.25;;;27.40;99.90;;;;;;5033944;28;20057;-66
2023/07/24 04:46:15;;;;;;;18.50;13.38;;;27.30;99.90;;;;;;5034830;28;20112;-66
2023/07/24 04:48:40;;;;;;;16.33;13.18;;;27.30;99.90;;;;;;5020490;28;20030;-66
2023/07/24 04:51:06;;;;;;;18.25;12.73;;;27.30;99.90;;;;;;5034507;28;20033;-66
2023/07/24 04:53:32;;;;;;;14.52;12.10;;;27.40;99.90;;;;;;5034555;28;20037;-66
2023/07/24 04:55:57;;;;;;;17.58;13.38;;;27.40;99.90;;;;;;5034236;28;20495;-66
2023/07/24 04:58:23;;;;;;;13.88;12.15;;;27.40;99.90;;;;;;5034100;28;20021;-67
2023/07/24 05:00:51;;;;;;;15.48;12.50;;;27.40;99.90;;;;;;5034320;28;20459;-60
2023/07/24 05:04:08;;;;;;;16.25;13.75;;;27.20;99.90;;;;;;5034506;28;20029;-60
2023/07/24 05:06:35;;;;;;;14.68;12.82;;;27.00;99.90;;;;;;5032705;28;20030;-60
2023/07/24 05:09:01;;;;;;;15.52;12.82;;;26.90;99.90;;;;;;5033181;28;20072;-60
2023/07/24 05:11:27;;;;;;;17.90;12.75;;;27.00;99.90;;;;;;5026344;28;20087;-60
2023/07/24 05:13:53;;;;;;;16.73;13.43;;;26.80;99.90;;;;;;5027565;28;20044;-60
2023/07/24 05:16:18;;;;;;;19.42;13.15;;;26.80;99.90;;;;;;5030312;28;20037;-60
2023/07/24 05:18:44;;;;;;;16.63;12.50;;;26.80;99.90;;;;;;5029565;28;20033;-60
2023/07/24 05:21:10;;;;;;;21.42;13.18;;;26.80;99.90;;;;;;5031141;28;20109;-60
2023/07/24 05:23:35;;;;;;;17.33;13.48;;;26.70;99.90;;;;;;5034116;28;20017;-60
2023/07/24 05:26:03;;;;;;;18.48;13.95;;;26.80;99.90;;;;;;5032417;28;20029;-60
2023/07/24 05:28:31;;;;;;;15.65;12.95;;;26.80;99.90;;;;;;5033596;28;20036;-60
2023/07/24 05:31:03;;;;;;;17.95;14.25;;;26.80;99.90;;;;;;5032061;28;20022;-60
2023/07/24 05:33:30;;;;;;;18.67;13.18;;;26.80;99.90;;;;;;5028303;28;20432;-60
2023/07/24 05:36:03;;;;;;;20.27;13.75;;;26.90;99.90;;;;;;5025445;28;20037;-60
2023/07/24 05:38:32;;;;;;;17.67;13.88;;;26.80;99.90;;;;;;5033296;28;20025;-60
2023/07/24 05:41:00;;;;;;;17.58;13.07;;;26.80;99.90;;;;;;5033306;28;20017;-61
2023/07/24 05:43:27;;;;;;;21.42;14.50;;;26.60;99.90;;;;;;5032286;28;20021;-60
2023/07/24 05:45:53;;;;;;;23.75;14.18;;;26.70;99.90;;;;;;5033097;28;20422;-60
2023/07/24 05:48:19;;;;;;;16.98;13.57;;;26.60;99.90;;;;;;5033335;28;20387;-60
2023/07/24 05:50:45;;;;;;;18.75;13.13;;;26.60;99.90;;;;;;5033322;28;20013;-62
2023/07/24 05:53:11;;;;;;;17.85;14.13;;;26.60;99.90;;;;;;5021551;28;20034;-62
2023/07/24 05:55:36;;;;;;;21.10;14.07;;;26.80;99.90;;;;;;5021749;28;20041;-62
2023/07/24 05:58:02;;;;;;;17.98;13.05;;;26.80;99.90;;;;;;5028531;28;20029;-62
2023/07/24 06:00:28;;;;;;;16.83;13.65;;;26.80;99.90;;;;;;5031636;28;20136;-62
2023/07/24 06:02:54;;;;;;;20.77;14.50;;;26.90;99.90;;;;;;5033375;28;20053;-62
2023/07/24 06:05:19;;;;;;;21.67;13.90;;;27.00;99.90;;;;;;5033318;28;20025;-62
2023/07/24 06:07:48;;;;;;;19.02;14.93;;;26.90;99.90;;;;;;5033199;28;20053;-62
2023/07/24 06:10:14;;;;;;;21.23;14.38;;;26.90;99.90;;;;;;5033287;28;20021;-62
2023/07/24 06:12:40;;;;;;;20.13;14.32;;;26.90;99.90;;;;;;5032852;28;20471;-62
2023/07/24 06:15:06;;;;;;;15.07;12.85;;;26.90;99.90;;;;;;5033381;28;20394;-62
2023/07/24 06:17:32;;;;;;;17.02;14.25;;;26.80;99.90;;;;;;5019106;28;20038;-62
2023/07/24 06:19:58;;;;;;;17.33;13.98;;;26.70;99.90;;;;;;5033057;28;20467;-62
2023/07/24 06:22:24;;;;;;;17.27;13.57;;;26.70;99.90;;;;;;5020854;28;20030;-63
2023/07/24 06:24:53;;;;;;;17.55;13.48;;;26.80;99.90;;;;;;5030095;28;20044;-62
2023/07/24 06:27:18;;;;;;;18.77;13.70;;;26.80;99.90;;;;;;5032416;28;20040;-62
2023/07/24 06:29:44;;;;;;;21.05;15.00;;;26.90;99.90;;;;;;5032375;28;20021;-62
2023/07/24 06:32:10;;;;;;;20.35;14.25;;;27.00;99.90;;;;;;5032977;28;20048;-62
2023/07/24 06:34:35;;;;;;;20.08;15.02;;;26.80;1.00;;;;;;5032852;28;20037;-62
2023/07/24 06:37:01;;;;;;;16.48;14.63;;;26.70;1.00;;;;;;5032874;28;20376;-62
2023/07/24 06:39:28;;;;;;;20.88;14.10;;;26.70;1.00;;;;;;5032907;28;20024;-62
2023/07/24 06:41:54;;;;;;;17.85;14.15;;;26.70;1.00;;;;;;5032524;28;20029;-62
2023/07/24 06:44:20;;;;;;;19.27;15.07;;;26.70;1.00;;;;;;5032847;28;20132;-62
2023/07/24 06:46:45;;;;;;;16.30;14.55;;;26.60;1.00;;;;;;5027041;28;20982;-62
2023/07/24 06:49:11;;;;;;;20.92;15.40;;;26.50;1.00;;;;;;5026795;28;20049;-62
2023/07/24 06:51:38;;;;;;;17.98;15.00;;;26.60;1.00;;;;;;5032229;28;20430;-62
2023/07/24 06:54:04;;;;;;;19.77;15.68;;;26.70;1.00;;;;;;5032027;28;20060;-62
2023/07/24 06:56:30;;;;;;;23.05;15.55;;;26.80;1.00;;;;;;5032263;28;20094;-62
2023/07/24 06:58:56;;;;;;;17.85;13.93;;;27.00;1.00;;;;;;5032534;28;20403;-62
2023/07/24 07:01:21;;;;;;;21.83;15.63;;;27.00;1.00;;;;;;5025559;28;20032;-62
2023/07/24 07:03:47;;;;;;;20.42;14.90;;;27.10;1.00;;;;;;5032666;28;20475;-62
2023/07/24 07:06:13;;;;;;;20.48;14.93;;;27.30;1.00;;;;;;5018948;28;20029;-63
2023/07/24 07:08:38;;;;;;;16.80;14.57;;;27.30;1.00;;;;;;5036182;28;20096;-62
2023/07/24 07:11:04;;;;;;;20.50;15.60;;;27.50;99.90;;;;;;5036134;28;20033;-63
2023/07/24 07:13:30;;;;;;;18.70;14.88;;;27.60;99.90;;;;;;5036582;28;20033;-62
2023/07/24 07:15:56;;;;;;;20.58;14.35;;;27.60;99.90;;;;;;5036121;28;20041;-62
2023/07/24 07:18:21;;;;;;;18.17;13.43;;;27.60;99.90;;;;;;5036083;28;20424;-62
2023/07/24 07:20:49;;;;;;;18.20;14.98;;;27.70;99.90;;;;;;5034838;28;20391;-62
2023/07/24 07:23:15;;;;;;;17.80;15.05;;;27.50;99.90;;;;;;5036313;28;20026;-62
2023/07/24 07:25:43;;;;;;;19.67;15.30;;;27.50;99.90;;;;;;5034868;28;20034;-62
2023/07/24 07:28:09;;;;;;;18.95;13.95;;;27.00;1.00;;;;;;5036118;28;20056;-62
2023/07/24 07:30:34;;;;;;;19.50;14.30;;;27.30;1.00;;;;;;5036415;28;20026;-62
2023/07/24 07:33:00;;;;;;;16.23;12.30;;;27.60;99.90;;;;;;5035844;28;20037;-62
2023/07/24 07:35:26;;;;;;;17.27;14.55;;;27.70;99.90;;;;;;5035811;28;20393;-62
2023/07/24 07:37:52;;;;;;;16.33;13.50;;;27.80;99.90;;;;;;5035782;28;20028;-62
2023/07/24 07:43:59;;;;;;;19.77;13.95;;;28.20;99.90;;;;;;5034912;28;20071;-62
2023/07/24 07:46:25;;;;;;;20.52;14.10;;;28.20;99.90;;;;;;5035937;28;20029;-63
2023/07/24 07:48:51;;;;;;;15.60;12.70;;;28.20;99.90;;;;;;5035946;28;20025;-62
2023/07/24 07:51:16;;;;;;;15.95;13.48;;;28.30;99.90;;;;;;5035532;28;20056;-62
2023/07/24 07:53:42;;;;;;;18.45;13.15;;;28.40;99.90;;;;;;5035480;28;20475;-63
2023/07/24 07:56:08;;;;;;;15.40;13.63;;;28.60;99.90;;;;;;5035674;28;20045;-63
2023/07/24 07:58:33;;;;;;;14.68;11.75;;;28.50;99.90;;;;;;5035263;28;20148;-62
2023/07/24 08:01:04;;;;;;;15.35;12.15;;;28.40;99.90;;;;;;5035219;28;20129;-62
2023/07/24 08:03:29;;;;;;;19.20;14.20;;;28.70;99.90;;;;;;5035665;28;20024;-62
2023/07/24 08:05:58;;;;;;;16.90;13.45;;;29.00;99.90;;;;;;5021206;28;20026;-63
2023/07/24 08:08:25;;;;;;;20.85;15.32;;;28.80;99.90;;;;;;5035625;28;20117;-62
2023/07/24 08:10:50;;;;;;;19.05;13.45;;;28.90;99.90;;;;;;5035282;28;20033;-62
2023/07/24 08:13:16;;;;;;;19.35;13.27;;;28.90;99.90;;;;;;5027612;28;20022;-63
2023/07/24 08:15:41;;;;;;;16.00;12.10;;;29.00;99.90;;;;;;5029191;28;20045;-63
2023/07/24 08:18:07;;;;;;;16.65;13.00;;;28.70;99.90;;;;;;5034629;28;20025;-62
2023/07/24 08:20:36;;;;;;;18.42;13.65;;;28.60;99.90;;;;;;5035020;28;20056;-62
2023/07/24 08:23:02;;;;;;;18.85;14.32;;;28.60;99.90;;;;;;5021072;28;20095;-62
2023/07/24 08:25:27;;;;;;;18.60;13.27;;;28.70;99.90;;;;;;5033677;28;20587;-62
2023/07/24 08:27:53;;;;;;;17.00;13.18;;;28.70;99.90;;;;;;5035083;28;20071;-63
2023/07/24 08:30:19;;;;;;;15.80;12.43;;;28.90;99.90;;;;;;5035011;28;20030;-62
2023/07/24 08:32:44;;;;;;;15.52;12.57;;;29.10;99.90;;;;;;5034855;28;20022;-62
2023/07/24 08:35:10;;;;;;;18.10;13.00;;;29.40;99.90;;;;;;5034658;28;20036;-62
2023/07/24 08:37:36;;;;;;;20.73;12.75;;;29.60;99.90;;;;;;5034601;28;20482;-63
2023/07/24 08:40:03;;;;;;;18.17;13.77;;;29.50;99.90;;;;;;5034898;28;20022;-62
2023/07/24 08:42:31;;;;;;;16.50;12.82;;;29.50;99.90;;;;;;5034905;28;20060;-62
2023/07/24 08:44:58;;;;;;;15.85;12.23;;;29.50;99.90;;;;;;5034584;28;20431;-62
2023/07/24 08:47:24;;;;;;;16.38;13.00;;;29.50;99.90;;;;;;5034308;28;20032;-62
2023/07/24 08:49:53;;;;;;;15.70;13.55;;;29.40;99.90;;;;;;5034401;28;20025;-62
2023/07/24 08:52:19;;;;;;;15.63;13.80;;;29.40;99.90;;;;;;5034919;28;20022;-62
2023/07/24 08:54:47;;;;;;;18.10;13.73;;;29.50;99.90;;;;;;5034324;28;20076;-62
2023/07/24 08:57:13;;;;;;;15.25;13.25;;;29.50;99.90;;;;;;5034276;28;20495;-62
2023/07/24 08:59:39;;;;;;;15.07;12.70;;;29.80;99.90;;;;;;5022560;28;20504;-63
2023/07/24 09:02:05;;;;;;;19.48;13.85;;;29.70;99.90;;;;;;5031101;28;20036;-62
2023/07/24 09:04:31;;;;;;;15.48;13.00;;;29.90;99.90;;;;;;5034154;28;20041;-63
2023/07/24 09:07:00;;;;;;;15.38;13.32;;;29.70;99.90;;;;;;5034130;28;20475;-63
2023/07/24 09:09:31;;;;;;;18.13;13.98;;;29.60;99.90;;;;;;5034048;28;20495;-62
2023/07/24 09:11:59;;;;;;;16.35;13.05;;;29.90;99.90;;;;;;5034211;28;20108;-63
2023/07/24 09:14:31;;;;;;;15.23;12.48;;;30.30;99.90;;;;;;5033915;28;20486;-63
2023/07/24 09:17:07;;;;;;;14.23;12.70;;;30.50;99.90;;;;;;5034309;28;20387;-63
2023/07/24 09:19:33;;;;;;;17.80;13.13;;;30.50;99.90;;;;;;5033996;28;20479;-63
2023/07/24 09:22:13;;;;;;;16.80;12.80;;;30.20;99.90;;;;;;5034200;28;20033;-63
2023/07/24 09:24:53;;;;;;;18.80;14.45;;;30.10;99.90;;;;;;5031529;28;20013;-62
2023/07/24 09:27:19;;;;;;;16.33;13.30;;;30.20;99.90;;;;;;5033995;28;20430;-62
2023/07/24 09:29:45;;;;;;;15.90;12.70;;;30.00;99.90;;;;;;5033298;28;20029;-62
2023/07/24 09:32:24;;;;;;;16.42;12.52;;;30.10;99.90;;;;;;5033127;28;20048;-62
2023/07/24 09:34:50;;;;;;;14.65;12.85;;;30.80;99.90;;;;;;5019935;28;20095;-62
2023/07/24 09:37:27;;;;;;;15.23;13.52;;;31.00;99.90;;;;;;5033641;28;20032;-63
2023/07/24 09:39:53;;;;;;;16.50;12.60;;;30.90;99.90;;;;;;5033511;28;20022;-62
2023/07/24 09:42:27;;;;;;;13.60;12.25;;;31.30;99.90;;;;;;5033788;28;20053;-62
2023/07/24 09:44:52;;;;;;;20.20;12.85;;;31.70;99.90;;;;;;5033654;28;20037;-63
2023/07/24 09:47:18;;;;;;;17.20;12.63;;;31.90;99.90;;;;;;5032274;28;20036;-62
2023/07/24 09:49:44;;;;;;;17.25;13.52;;;32.10;99.90;;;;;;5032132;28;20021;-63
2023/07/24 09:52:10;;;;;;;17.77;12.82;;;32.00;99.90;;;;;;5033884;28;20017;-63
2023/07/24 09:54:46;;;;;;;16.02;13.73;;;32.00;99.90;;;;;;5033462;28;20037;-63
2023/07/24 09:57:14;;;;;;;15.57;13.15;;;32.10;99.90;;;;;;5033224;28;20026;-63
2023/07/24 09:59:40;;;;;;;16.00;12.80;;;32.20;99.90;;;;;;5032067;28;20136;-62
2023/07/24 10:02:11;;;;;;;16.33;14.00;;;32.10;99.90;;;;;;5031766;28;20417;-62
2023/07/24 10:04:37;;;;;;;15.13;13.57;;;32.00;99.90;;;;;;5019801;28;20544;-62
2023/07/24 10:07:04;;;;;;;15.68;12.90;;;32.00;99.90;;;;;;5033264;28;20048;-63
2023/07/24 10:09:31;;;;;;;15.07;13.40;;;32.20;99.90;;;;;;5030214;28;20080;-62
2023/07/24 10:15:25;;;;;;;17.23;14.25;;;32.00;99.90;;;;;;5025566;28;20049;-61
2023/07/24 10:18:02;;;;;;;16.45;14.38;;;32.10;99.90;;;;;;5030160;28;20049;-61
2023/07/24 10:20:34;;;;;;;16.40;13.93;;;32.20;99.90;;;;;;5032858;28;20108;-60
2023/07/24 10:23:02;;;;;;;17.00;14.18;;;31.70;99.90;;;;;;5030793;28;20025;-61
2023/07/24 10:25:32;;;;;;;16.88;13.65;;;31.70;99.90;;;;;;5017400;28;20483;-60
2023/07/24 10:28:16;;;;;;;16.88;14.18;;;31.90;99.90;;;;;;5027895;28;20068;-61
2023/07/24 10:30:42;;;;;;;15.88;12.35;;;31.60;99.90;;;;;;5023751;28;20014;-63
2023/07/24 10:33:09;;;;;;;18.02;14.10;;;31.30;99.90;;;;;;5013009;28;20471;-60
2023/07/24 10:35:54;;;;;;;17.05;15.25;;;30.80;99.90;;;;;;5019121;28;20380;-61
2023/07/24 10:38:34;;;;;;;16.88;15.07;;;30.30;99.90;;;;;;5018851;28;20033;-60
2023/07/24 10:41:04;;;;;;;16.75;14.77;;;30.10;99.90;;;;;;5032758;28;20029;-62
2023/07/24 10:43:40;;;;;;;17.63;14.80;;;30.10;99.90;;;;;;5022185;28;20030;-61
2023/07/24 10:46:06;;;;;;;18.45;14.18;;;30.10;99.90;;;;;;5036647;28;20018;-61
2023/07/24 10:48:36;;;;;;;14.48;12.70;;;29.90;99.90;;;;;;5022311;28;20095;-63
2023/07/24 10:51:08;;;;;;;16.33;13.18;;;29.70;99.90;;;;;;5024829;28;20128;-62
2023/07/24 10:53:38;;;;;;;15.77;13.03;;;29.60;99.90;;;;;;5036836;28;20025;-62
2023/07/24 10:56:07;;;;;;;14.23;12.70;;;29.90;99.90;;;;;;5036743;28;20072;-62
2023/07/24 10:58:35;;;;;;;15.40;12.35;;;29.80;99.90;;;;;;5022876;28;20050;-62
2023/07/24 11:01:04;;;;;;;16.42;13.57;;;29.90;99.90;;;;;;5023174;28;20070;-62
2023/07/24 11:03:31;;;;;;;17.33;13.00;;;29.90;99.90;;;;;;5036672;28;20057;-62
2023/07/24 11:05:58;;;;;;;17.20;13.02;;;29.80;99.90;;;;;;5036434;28;20029;-62
2023/07/24 11:08:24;;;;;;;15.82;12.50;;;30.00;99.90;;;;;;5036618;28;20034;-62
2023/07/24 11:10:55;;;;;;;15.68;12.23;;;29.90;99.90;;;;;;5036449;28;20486;-62
2023/07/24 11:13:23;;;;;;;15.80;12.30;;;30.10;99.90;;;;;;5036588;28;20033;-62
2023/07/24 11:15:50;;;;;;;17.52;12.40;;;30.20;99.90;;;;;;5036084;28;20037;-62
2023/07/24 11:18:16;;;;;;;14.23;11.60;;;30.30;99.90;;;;;;5036235;28;20111;-62
2023/07/24 11:20:47;;;;;;;17.13;13.48;;;30.80;99.90;;;;;;5036072;28;20029;-62
2023/07/24 11:23:13;;;;;;;15.18;12.95;;;31.30;99.90;;;;;;5022446;28;20022;-62
2023/07/24 11:25:40;;;;;;;18.02;13.38;;;31.80;99.90;;;;;;5036296;28;20126;-62
2023/07/24 11:28:07;;;;;;;15.20;12.73;;;31.90;99.90;;;;;;5034722;28;20022;-63
2023/07/24 11:30:34;;;;;;;14.13;11.88;;;31.20;99.90;;;;;;5035954;28;20025;-63
2023/07/24 11:33:02;;;;;;;16.08;13.02;;;31.10;99.90;;;;;;5035793;28;20109;-63
2023/07/24 11:35:28;;;;;;;14.00;12.45;;;30.80;99.90;;;;;;5034487;28;20487;-63
2023/07/24 11:37:54;;;;;;;16.85;12.05;;;30.60;99.90;;;;;;5035734;28;20044;-62
2023/07/24 11:40:20;;;;;;;15.93;12.20;;;30.40;99.90;;;;;;5035792;28;20028;-63
2023/07/24 11:42:47;;;;;;;14.38;12.23;;;30.30;99.90;;;;;;5035678;28;20017;-63
2023/07/24 11:45:13;;;;;;;17.23;11.82;;;30.10;99.90;;;;;;5035890;28;20076;-62
2023/07/24 11:47:44;;;;;;;16.42;12.20;;;29.90;99.90;;;;;;5034265;28;20037;-63
2023/07/24 11:50:10;;;;;;;16.83;13.20;;;29.40;99.90;;;;;;5030681;28;20020;-62
2023/07/24 11:52:43;;;;;;;14.88;12.52;;;29.40;99.90;;;;;;5026584;28;20116;-62
2023/07/24 11:55:10;;;;;;;16.33;13.65;;;29.10;99.90;;;;;;5034617;28;20479;-63
2023/07/24 11:57:36;;;;;;;20.13;13.75;;;28.60;99.90;;;;;;5035383;28;20033;-63
2023/07/24 12:00:03;;;;;;;18.15;11.63;;;28.50;99.90;;;;;;5032640;28;20044;-63
2023/07/24 12:02:31;;;;;;;20.95;9.23;;;27.80;99.90;;;;;;5035325;28;20029;-62
2023/07/24 12:04:57;;;;;;;20.05;9.88;;;26.90;99.90;;;;;;5035495;28;20060;-63
2023/07/24 12:07:32;;;;;;;16.23;8.82;;;26.70;1.00;;;;;;5034040;28;20051;-62
2023/07/24 12:09:59;;;;;;;10.13;7.93;;;26.90;1.00;;;;;;5035297;28;20025;-63
2023/07/24 12:12:24;;;;;;;11.73;7.35;;;26.80;1.00;;;;;;5034974;28;20036;-62
2023/07/24 12:14:50;;;;;;;10.10;7.05;;;26.50;1.00;;;;;;5034707;28;20074;-62
2023/07/24 12:17:19;;;;;;;9.20;6.65;;;26.40;1.00;;;;;;5034876;28;20038;-62
2023/07/24 12:19:45;;;;;;;9.73;5.97;;;26.40;1.00;;;;;;5034865;28;20033;-62
2023/07/24 12:22:11;;;;;;;6.20;5.60;;;26.50;1.00;;;;;;5023574;28;20026;-62
2023/07/24 12:24:37;;;;;;;10.02;5.88;;;26.70;1.00;;;;;;5032505;28;20084;-62
2023/07/24 12:27:03;;;;;;;6.55;5.47;;;26.50;1.00;;;;;;5034687;28;20452;-62
2023/07/24 12:29:44;;;;;;;6.15;5.18;;;26.50;1.00;;;;;;5034994;28;20029;-62
2023/07/24 12:32:09;;;;;;;7.35;4.78;;;26.60;1.00;;;;;;5034756;28;20125;-62
2023/07/24 12:34:35;;;;;;;4.55;3.72;;;26.60;1.00;;;;;;5020477;28;20040;-62